createdAt,value
2023-07-21T00:01:11.859Z,98.95
2023-07-21T00:03:45.382Z,99.47
2023-07-21T00:06:13.402Z,99.92
2023-07-21T00:08:40.123Z,100.00
2023-07-21T00:11:06.786Z,100.00
2023-07-21T00:13:36.518Z,100.00
2023-07-21T00:16:08.509Z,100.00
2023-07-21T00:18:36.250Z,100.00
2023-07-21T00:21:06.570Z,100.00
2023-07-21T00:23:33.816Z,100.00
2023-07-21T00:26:02.344Z,100.00
2023-07-21T00:28:29.186Z,100.00
2023-07-21T00:30:55.993Z,100.00
2023-07-21T00:33:23.512Z,100.00
2023-07-21T00:35:50.215Z,100.00
2023-07-21T00:38:16.810Z,100.00
2023-07-21T00:40:43.642Z,100.00
2023-07-21T00:43:10.426Z,100.00
2023-07-21T00:45:41.145Z,100.00
2023-07-21T00:48:11.525Z,100.00
2023-07-21T00:50:43.852Z,100.00
2023-07-21T00:53:12.575Z,100.00
2023-07-21T00:55:40.135Z,100.00
2023-07-21T00:58:08.788Z,100.00
2023-07-21T01:00:35.596Z,100.00
2023-07-21T01:03:04.465Z,100.00
2023-07-21T01:05:35.041Z,100.00
2023-07-21T01:08:09.062Z,100.00
2023-07-21T01:10:39.114Z,100.00
2023-07-21T01:13:06.795Z,100.00
2023-07-21T01:15:37.166Z,100.00
2023-07-21T01:18:06.181Z,100.00
2023-07-21T01:20:33.666Z,100.00
2023-07-21T01:23:35.350Z,100.00
2023-07-21T01:26:03.064Z,100.00
2023-07-21T01:28:31.065Z,100.00
2023-07-21T01:30:58.511Z,100.00
2023-07-21T01:33:27.630Z,100.00
2023-07-21T01:35:55.439Z,100.00
2023-07-21T01:38:23.748Z,100.00
2023-07-21T01:40:51.536Z,100.00
2023-07-21T01:43:18.875Z,100.00
2023-07-21T01:45:45.636Z,100.00
2023-07-21T01:48:12.271Z,100.00
2023-07-21T01:50:42.412Z,100.00
2023-07-21T01:53:16.844Z,100.00
2023-07-21T01:55:59.858Z,100.00
2023-07-21T01:58:28.706Z,100.00
2023-07-21T02:00:56.718Z,100.00
2023-07-21T02:03:24.674Z,100.00
2023-07-21T02:05:51.659Z,100.00
2023-07-21T02:08:19.353Z,100.00
2023-07-21T02:10:46.286Z,100.00
2023-07-21T02:13:14.818Z,100.00
2023-07-21T02:15:41.678Z,100.00
2023-07-21T02:18:08.445Z,100.00
2023-07-21T02:20:35.012Z,100.00
2023-07-21T02:23:01.760Z,100.00
2023-07-21T02:25:28.402Z,100.00
2023-07-21T02:27:55.016Z,100.00
2023-07-21T02:30:21.861Z,100.00
2023-07-21T02:32:48.512Z,100.00
2023-07-21T02:35:15.341Z,100.00
2023-07-21T02:37:41.955Z,100.00
2023-07-21T02:40:09.591Z,100.00
2023-07-21T02:42:39.142Z,100.00
2023-07-21T02:45:06.479Z,100.00
2023-07-21T02:47:33.185Z,100.00
2023-07-21T02:49:59.998Z,100.00
2023-07-21T02:52:28.618Z,100.00
2023-07-21T02:54:55.250Z,100.00
2023-07-21T02:57:22.333Z,100.00
2023-07-21T02:59:51.206Z,100.00
2023-07-21T03:02:19.356Z,100.00
2023-07-21T03:04:46.958Z,100.00
2023-07-21T03:07:13.860Z,100.00
2023-07-21T03:09:41.169Z,100.00
2023-07-21T03:12:08.643Z,100.00
2023-07-21T03:14:35.478Z,100.00
2023-07-21T03:17:02.311Z,100.00
2023-07-21T03:19:32.338Z,100.00
2023-07-21T03:21:59.379Z,100.00
2023-07-21T03:24:26.332Z,100.00
2023-07-21T03:26:53.235Z,100.00
2023-07-21T03:29:19.939Z,100.00
2023-07-21T03:31:47.104Z,100.00
2023-07-21T03:34:14.798Z,100.00
2023-07-21T03:36:41.675Z,100.00
2023-07-21T03:39:08.488Z,100.00
2023-07-21T03:41:35.326Z,100.00
2023-07-21T03:44:02.005Z,100.00
2023-07-21T03:46:29.336Z,100.00
2023-07-21T03:48:56.215Z,100.00
2023-07-21T03:51:22.820Z,100.00
2023-07-21T03:53:49.611Z,100.00
2023-07-21T03:56:16.351Z,100.00
2023-07-21T03:58:43.992Z,100.00
2023-07-21T04:01:10.775Z,100.00
2023-07-21T04:03:37.714Z,100.00
2023-07-21T04:06:21.067Z,100.00
2023-07-21T04:08:47.767Z,100.00
2023-07-21T04:11:14.356Z,100.00
2023-07-21T04:13:41.025Z,100.00
2023-07-21T04:16:07.917Z,100.00
2023-07-21T04:18:34.652Z,100.00
2023-07-21T04:21:01.430Z,100.00
2023-07-21T04:23:28.084Z,100.00
2023-07-21T04:25:54.713Z,100.00
2023-07-21T04:28:22.185Z,100.00
2023-07-21T04:30:55.120Z,100.00
2023-07-21T04:33:21.872Z,100.00
2023-07-21T04:35:49.319Z,100.00
2023-07-21T04:38:16.033Z,100.00
2023-07-21T04:40:45.654Z,100.00
2023-07-21T04:43:13.507Z,100.00
2023-07-21T04:45:43.671Z,100.00
2023-07-21T04:48:10.558Z,100.00
2023-07-21T04:50:37.388Z,99.77
2023-07-21T04:53:04.234Z,99.20
2023-07-21T04:55:30.995Z,99.61
2023-07-21T04:57:57.769Z,100.00
2023-07-21T05:00:25.133Z,100.00
2023-07-21T05:02:51.804Z,100.00
2023-07-21T05:05:18.984Z,100.00
2023-07-21T05:07:45.678Z,100.00
2023-07-21T05:10:12.440Z,100.00
2023-07-21T05:12:39.095Z,100.00
2023-07-21T05:15:06.397Z,100.00
2023-07-21T05:17:33.423Z,100.00
2023-07-21T05:20:00.261Z,100.00
2023-07-21T05:22:27.265Z,100.00
2023-07-21T05:24:54.404Z,100.00
2023-07-21T05:27:22.667Z,100.00
2023-07-21T05:29:49.480Z,100.00
2023-07-21T05:32:16.617Z,100.00
2023-07-21T05:34:43.581Z,100.00
2023-07-21T05:37:12.744Z,100.00
2023-07-21T05:39:40.803Z,100.00
2023-07-21T05:42:08.227Z,100.00
2023-07-21T05:44:35.114Z,100.00
2023-07-21T05:47:02.434Z,100.00
2023-07-21T05:49:29.305Z,100.00
2023-07-21T05:51:56.052Z,100.00
2023-07-21T05:54:22.704Z,100.00
2023-07-21T05:56:49.459Z,100.00
2023-07-21T05:59:16.054Z,100.00
2023-07-21T06:01:43.286Z,100.00
2023-07-21T06:04:10.500Z,100.00
2023-07-21T06:06:37.341Z,100.00
2023-07-21T06:09:05.513Z,100.00
2023-07-21T06:11:32.285Z,100.00
2023-07-21T06:13:58.912Z,100.00
2023-07-21T06:16:26.368Z,100.00
2023-07-21T06:18:53.901Z,100.00
2023-07-21T06:21:24.934Z,100.00
2023-07-21T06:23:54.785Z,100.00
2023-07-21T06:26:21.906Z,100.00
2023-07-21T06:28:48.716Z,100.00
2023-07-21T06:31:16.264Z,100.00
2023-07-21T06:33:43.164Z,100.00
2023-07-21T06:36:10.020Z,100.00
2023-07-21T06:38:36.880Z,100.00
2023-07-21T06:41:06.279Z,100.00
2023-07-21T06:43:33.880Z,100.00
2023-07-21T06:46:01.043Z,100.00
2023-07-21T06:48:27.805Z,100.00
2023-07-21T06:50:54.718Z,100.00
2023-07-21T06:53:21.366Z,100.00
2023-07-21T06:55:51.037Z,100.00
2023-07-21T06:58:17.691Z,100.00
2023-07-21T07:00:44.306Z,100.00
2023-07-21T07:03:10.927Z,100.00
2023-07-21T07:05:37.609Z,100.00
2023-07-21T07:08:04.320Z,100.00
2023-07-21T07:10:30.812Z,100.00
2023-07-21T07:12:57.417Z,100.00
2023-07-21T07:15:24.122Z,100.00
2023-07-21T07:17:50.929Z,100.00
2023-07-21T07:20:18.060Z,100.00
2023-07-21T07:22:45.172Z,100.00
2023-07-21T07:25:12.018Z,100.00
2023-07-21T07:27:38.749Z,100.00
2023-07-21T07:30:08.154Z,100.00
2023-07-21T07:32:34.828Z,100.00
2023-07-21T07:35:01.539Z,100.00
2023-07-21T07:37:28.923Z,100.00
2023-07-21T07:39:56.913Z,100.00
2023-07-21T07:42:25.036Z,100.00
2023-07-21T07:44:56.603Z,100.00
2023-07-21T07:47:24.213Z,100.00
2023-07-21T07:49:51.113Z,100.00
2023-07-21T07:52:19.945Z,100.00
2023-07-21T07:54:46.874Z,100.00
2023-07-21T07:57:13.588Z,100.00
2023-07-21T07:59:40.625Z,100.00
2023-07-21T08:02:07.582Z,100.00
2023-07-21T08:04:34.608Z,100.00
2023-07-21T08:07:01.587Z,100.00
2023-07-21T08:09:28.306Z,100.00
2023-07-21T08:11:55.833Z,100.00
2023-07-21T08:14:23.922Z,100.00
2023-07-21T08:16:50.627Z,100.00
2023-07-21T08:19:17.289Z,100.00
2023-07-21T08:21:44.137Z,99.34
2023-07-21T08:24:10.886Z,100.00
2023-07-21T08:26:37.653Z,100.00
2023-07-21T08:29:08.490Z,100.00
2023-07-21T08:31:35.250Z,100.00
2023-07-21T08:34:02.074Z,100.00
2023-07-21T08:36:36.778Z,100.00
2023-07-21T08:39:11.353Z,100.00
2023-07-21T08:41:46.484Z,100.00
2023-07-21T08:44:15.170Z,100.00
2023-07-21T08:46:42.151Z,100.00
2023-07-21T08:49:09.347Z,100.00
2023-07-21T08:51:38.916Z,100.00
2023-07-21T08:54:05.657Z,100.00
2023-07-21T08:56:32.449Z,100.00
2023-07-21T08:58:59.140Z,100.00
2023-07-21T09:01:25.953Z,100.00
2023-07-21T09:03:52.718Z,100.00
2023-07-21T09:06:19.553Z,100.00
2023-07-21T09:08:50.462Z,100.00
2023-07-21T09:11:18.427Z,100.00
2023-07-21T09:13:55.554Z,100.00
2023-07-21T09:16:22.265Z,100.00
2023-07-21T09:18:49.832Z,100.00
2023-07-21T09:21:21.581Z,100.00
2023-07-21T09:23:49.130Z,100.00
2023-07-21T09:26:24.163Z,100.00
2023-07-21T09:28:51.668Z,100.00
2023-07-21T09:31:18.399Z,100.00
2023-07-21T09:33:46.815Z,100.00
2023-07-21T09:36:17.718Z,100.00
2023-07-21T09:38:45.994Z,100.00
2023-07-21T09:41:23.534Z,100.00
2023-07-21T09:43:51.672Z,100.00
2023-07-21T09:46:19.149Z,100.00
2023-07-21T09:48:46.446Z,100.00
2023-07-21T09:51:13.681Z,100.00
2023-07-21T09:53:46.690Z,99.84
2023-07-21T09:56:15.037Z,100.00
2023-07-21T09:58:52.386Z,100.00
2023-07-21T10:01:20.115Z,100.00
2023-07-21T10:03:48.014Z,100.00
2023-07-21T10:06:16.535Z,100.00
2023-07-21T10:08:43.897Z,100.00
2023-07-21T10:11:11.106Z,100.00
2023-07-21T10:13:46.289Z,100.00
2023-07-21T10:16:13.814Z,100.00
2023-07-21T10:19:07.894Z,100.00
2023-07-21T10:21:56.081Z,100.00
2023-07-21T10:24:25.281Z,100.00
2023-07-21T10:27:06.465Z,100.00
2023-07-21T10:29:33.589Z,100.00
2023-07-21T10:32:04.644Z,100.00
2023-07-21T10:34:41.088Z,98.26
2023-07-21T10:37:08.452Z,93.19
2023-07-21T10:39:43.533Z,91.90
2023-07-21T10:42:12.718Z,91.27
2023-07-21T10:44:46.025Z,90.91
2023-07-21T10:47:17.243Z,89.23
2023-07-21T10:49:44.943Z,85.52
2023-07-21T10:52:12.414Z,81.01
2023-07-21T10:54:40.014Z,79.20
2023-07-21T10:57:07.453Z,79.93
2023-07-21T10:59:35.990Z,78.63
2023-07-21T11:02:05.453Z,81.44
2023-07-21T11:04:32.547Z,76.27
2023-07-21T11:07:01.058Z,77.46
2023-07-21T11:09:28.812Z,76.24
2023-07-21T11:11:58.946Z,74.55
2023-07-21T11:14:27.955Z,71.51
2023-07-21T11:16:56.423Z,69.18
2023-07-21T11:19:25.556Z,69.10
2023-07-21T11:21:54.334Z,68.89
2023-07-21T11:24:24.731Z,69.67
2023-07-21T11:26:51.598Z,67.77
2023-07-21T11:29:18.542Z,67.29
2023-07-21T11:31:45.390Z,66.15
2023-07-21T11:34:22.857Z,64.77
2023-07-21T11:36:53.886Z,63.33
2023-07-21T11:39:23.992Z,62.88
2023-07-21T11:41:51.902Z,63.96
2023-07-21T11:44:20.631Z,62.23
2023-07-21T11:47:13.563Z,60.32
2023-07-21T11:49:45.629Z,62.14
2023-07-21T11:52:23.897Z,60.42
2023-07-21T11:54:50.451Z,59.02
2023-07-21T11:57:17.130Z,60.49
2023-07-21T11:59:43.796Z,58.72
2023-07-21T12:02:10.897Z,57.22
2023-07-21T12:04:41.253Z,58.25
2023-07-21T12:07:11.250Z,59.32
2023-07-21T12:09:39.608Z,58.34
2023-07-21T12:12:08.896Z,59.00
2023-07-21T12:14:35.886Z,58.17
2023-07-21T12:17:02.642Z,60.29
2023-07-21T12:19:29.391Z,61.85
2023-07-21T12:21:57.059Z,61.60
2023-07-21T12:24:23.884Z,63.38
2023-07-21T12:26:50.786Z,61.61
2023-07-21T12:29:29.266Z,62.21
2023-07-21T12:32:01.242Z,62.71
2023-07-21T12:34:28.188Z,61.56
2023-07-21T12:36:55.276Z,61.22
2023-07-21T12:39:21.976Z,59.37
2023-07-21T12:41:48.817Z,59.07
2023-07-21T12:44:15.333Z,58.55
2023-07-21T12:46:42.777Z,59.37
2023-07-21T12:49:10.165Z,59.75
2023-07-21T12:51:38.009Z,56.51
2023-07-21T12:54:04.746Z,58.17
2023-07-21T12:56:31.496Z,57.15
2023-07-21T12:58:58.319Z,58.77
2023-07-21T13:01:25.078Z,58.24
2023-07-21T13:03:52.160Z,58.55
2023-07-21T13:06:19.031Z,58.30
2023-07-21T13:08:46.180Z,56.05
2023-07-21T13:11:12.872Z,56.14
2023-07-21T13:13:39.870Z,58.13
2023-07-21T13:16:06.749Z,60.28
2023-07-21T13:18:33.712Z,59.57
2023-07-21T13:21:00.367Z,60.41
2023-07-21T13:23:27.263Z,62.03
2023-07-21T13:25:53.916Z,61.40
2023-07-21T13:28:20.898Z,61.68
2023-07-21T13:30:47.936Z,61.57
2023-07-21T13:33:14.790Z,60.96
2023-07-21T13:35:41.520Z,61.96
2023-07-21T13:38:08.193Z,62.69
2023-07-21T13:40:34.944Z,64.60
2023-07-21T13:43:01.726Z,63.33
2023-07-21T13:45:28.579Z,63.66
2023-07-21T13:47:55.419Z,63.23
2023-07-21T13:50:22.235Z,61.94
2023-07-21T13:52:48.976Z,62.21
2023-07-21T13:55:15.606Z,62.73
2023-07-21T13:57:42.601Z,63.80
2023-07-21T14:00:19.236Z,64.52
2023-07-21T14:02:47.461Z,64.66
2023-07-21T14:05:15.495Z,65.80
2023-07-21T14:07:42.598Z,67.38
2023-07-21T14:10:10.239Z,66.37
2023-07-21T14:12:36.851Z,66.69
2023-07-21T14:15:04.369Z,67.85
2023-07-21T14:17:31.114Z,65.82
2023-07-21T14:19:57.936Z,67.67
2023-07-21T14:22:25.078Z,70.64
2023-07-21T14:24:52.136Z,71.66
2023-07-21T14:27:18.844Z,73.44
2023-07-21T14:29:45.600Z,72.84
2023-07-21T14:32:12.483Z,72.60
2023-07-21T14:34:39.218Z,74.21
2023-07-21T14:37:06.027Z,75.68
2023-07-21T14:39:32.847Z,77.33
2023-07-21T14:41:59.628Z,79.37
2023-07-21T14:44:26.517Z,81.69
2023-07-21T14:46:53.389Z,86.56
2023-07-21T14:49:22.314Z,87.81
2023-07-21T14:51:49.104Z,89.55
2023-07-21T14:54:15.924Z,91.81
2023-07-21T14:56:42.938Z,92.75
2023-07-21T14:59:09.622Z,95.81
2023-07-21T15:01:36.267Z,95.60
2023-07-21T15:04:02.897Z,98.17
2023-07-21T15:06:29.637Z,100.00
2023-07-21T15:08:56.494Z,100.00
2023-07-21T15:11:23.162Z,100.00
2023-07-21T15:13:50.080Z,100.00
2023-07-21T15:16:16.934Z,100.00
2023-07-21T15:18:43.846Z,100.00
2023-07-21T15:21:10.823Z,100.00
2023-07-21T15:23:37.580Z,100.00
2023-07-21T15:26:04.519Z,98.24
2023-07-21T15:28:31.428Z,100.00
2023-07-21T15:31:08.606Z,100.00
2023-07-21T15:33:36.030Z,100.00
2023-07-21T15:36:03.882Z,100.00
2023-07-21T15:38:30.570Z,100.00
2023-07-21T15:41:00.876Z,100.00
2023-07-21T15:43:27.515Z,100.00
2023-07-21T15:45:54.192Z,100.00
2023-07-21T15:48:20.998Z,100.00
2023-07-21T15:50:48.216Z,100.00
2023-07-21T15:53:15.151Z,100.00
2023-07-21T15:55:41.950Z,100.00
2023-07-21T15:58:08.982Z,100.00
2023-07-21T16:00:35.831Z,100.00
2023-07-21T16:03:02.569Z,100.00
2023-07-21T16:05:29.305Z,100.00
2023-07-21T16:07:56.182Z,100.00
2023-07-21T16:10:23.024Z,100.00
2023-07-21T16:12:50.913Z,100.00
2023-07-21T16:15:17.638Z,100.00
2023-07-21T16:17:47.238Z,100.00
2023-07-21T16:20:14.644Z,100.00
2023-07-21T16:22:42.121Z,100.00
2023-07-21T16:25:09.802Z,100.00
2023-07-21T16:27:37.333Z,100.00
2023-07-21T16:30:04.261Z,100.00
2023-07-21T16:32:31.095Z,99.96
2023-07-21T16:34:57.943Z,98.89
2023-07-21T16:37:24.653Z,99.79
2023-07-21T16:39:54.562Z,98.34
2023-07-21T16:42:21.291Z,96.78
2023-07-21T16:44:48.011Z,97.92
2023-07-21T16:47:15.137Z,98.72
2023-07-21T16:49:41.996Z,99.21
2023-07-21T16:52:08.911Z,96.03
2023-07-21T16:54:35.696Z,95.72
2023-07-21T16:57:02.554Z,93.41
2023-07-21T16:59:32.097Z,94.61
2023-07-21T17:02:01.448Z,94.04
2023-07-21T17:04:33.170Z,92.44
2023-07-21T17:07:00.612Z,94.58
2023-07-21T17:09:27.430Z,94.49
2023-07-21T17:11:54.179Z,95.28
2023-07-21T17:14:20.857Z,94.55
2023-07-21T17:16:47.954Z,93.05
2023-07-21T17:19:14.991Z,92.49
2023-07-21T17:21:44.114Z,94.25
2023-07-21T17:24:11.439Z,95.57
2023-07-21T17:26:38.173Z,96.06
2023-07-21T17:29:04.983Z,96.72
2023-07-21T17:31:31.698Z,97.15
2023-07-21T17:33:58.420Z,96.21
2023-07-21T17:36:25.226Z,96.83
2023-07-21T17:38:51.860Z,95.68
2023-07-21T17:41:18.628Z,97.43
2023-07-21T17:43:45.415Z,95.57
2023-07-21T17:46:12.329Z,96.02
2023-07-21T17:48:39.031Z,96.40
2023-07-21T17:51:05.578Z,95.86
2023-07-21T17:53:32.272Z,96.69
2023-07-21T17:55:59.116Z,96.37
2023-07-21T17:58:25.804Z,97.15
2023-07-21T18:00:52.840Z,97.00
2023-07-21T18:03:19.994Z,97.95
2023-07-21T18:05:47.884Z,97.76
2023-07-21T18:08:14.723Z,98.91
2023-07-21T18:10:41.524Z,97.90
2023-07-21T18:13:08.216Z,98.09
2023-07-21T18:15:37.142Z,97.62
2023-07-21T18:18:04.884Z,97.06
2023-07-21T18:20:35.176Z,96.97
2023-07-21T18:23:03.735Z,96.75
2023-07-21T18:25:30.655Z,94.67
2023-07-21T18:27:57.953Z,95.85
2023-07-21T18:30:24.834Z,97.04
2023-07-21T18:32:51.824Z,95.32
2023-07-21T18:35:18.677Z,96.31
2023-07-21T18:37:45.402Z,95.21
2023-07-21T18:40:18.180Z,95.44
2023-07-21T18:42:52.503Z,96.03
2023-07-21T18:45:22.763Z,95.91
2023-07-21T18:47:50.265Z,96.27
2023-07-21T18:50:20.463Z,96.15
2023-07-21T18:52:51.663Z,97.42
2023-07-21T18:55:22.010Z,97.87
2023-07-21T18:57:49.189Z,97.85
2023-07-21T19:00:17.259Z,98.57
2023-07-21T19:02:44.113Z,97.65
2023-07-21T19:05:11.022Z,96.98
2023-07-21T19:07:37.815Z,96.56
2023-07-21T19:10:08.789Z,96.49
2023-07-21T19:12:36.044Z,96.38
2023-07-21T19:15:02.978Z,96.82
2023-07-21T19:17:30.079Z,95.20
2023-07-21T19:19:56.881Z,95.85
2023-07-21T19:22:24.172Z,95.99
2023-07-21T19:24:50.897Z,95.60
2023-07-21T19:27:17.593Z,95.69
2023-07-21T19:29:44.326Z,96.37
2023-07-21T19:32:11.162Z,97.61
2023-07-21T19:34:38.960Z,98.28
2023-07-21T19:37:06.097Z,97.16
2023-07-21T19:39:33.185Z,96.90
2023-07-21T19:42:00.105Z,96.96
2023-07-21T19:44:27.154Z,97.55
2023-07-21T19:46:54.165Z,97.58
2023-07-21T19:49:21.161Z,98.13
2023-07-21T19:51:52.384Z,97.32
2023-07-21T19:54:20.275Z,97.34
2023-07-21T19:56:48.375Z,97.73
2023-07-21T19:59:15.931Z,97.54
2023-07-21T20:01:42.941Z,97.90
2023-07-21T20:04:10.389Z,97.40
2023-07-21T20:06:37.288Z,98.22
2023-07-21T20:09:05.557Z,97.98
2023-07-21T20:11:33.480Z,97.20
2023-07-21T20:14:00.249Z,97.32
2023-07-21T20:16:27.260Z,96.92
2023-07-21T20:18:54.176Z,96.42
2023-07-21T20:21:22.808Z,95.17
2023-07-21T20:23:49.739Z,95.60
2023-07-21T20:26:16.498Z,94.45
2023-07-21T20:28:43.128Z,95.43
2023-07-21T20:31:13.106Z,95.48
2023-07-21T20:33:39.834Z,94.81
2023-07-21T20:36:06.811Z,95.14
2023-07-21T20:38:34.842Z,95.95
2023-07-21T20:41:09.277Z,95.63
2023-07-21T20:43:37.113Z,95.71
2023-07-21T20:46:04.020Z,96.36
2023-07-21T20:48:30.750Z,96.27
2023-07-21T20:50:58.355Z,96.55
2023-07-21T20:53:25.874Z,96.05
2023-07-21T20:55:56.492Z,97.03
2023-07-21T20:58:24.773Z,98.53
2023-07-21T21:00:58.927Z,97.85
2023-07-21T21:03:25.668Z,98.81
2023-07-21T21:05:59.978Z,99.34
2023-07-21T21:08:27.421Z,99.29
2023-07-21T21:10:54.408Z,98.97
2023-07-21T21:13:22.335Z,99.41
2023-07-21T21:15:49.394Z,99.24
2023-07-21T21:18:16.652Z,100.00
2023-07-21T21:20:45.968Z,99.55
2023-07-21T21:23:13.597Z,99.57
2023-07-21T21:25:40.197Z,98.56
2023-07-21T21:28:08.416Z,98.62
2023-07-21T21:30:35.160Z,98.28
2023-07-21T21:33:01.840Z,97.96
2023-07-21T21:35:28.533Z,98.52
2023-07-21T21:37:55.233Z,98.58
2023-07-21T21:40:21.939Z,98.44
2023-07-21T21:42:48.585Z,98.52
2023-07-21T21:45:15.208Z,98.28
2023-07-21T21:47:41.808Z,99.16
2023-07-21T21:50:08.879Z,98.65
2023-07-21T21:52:35.660Z,98.78
2023-07-21T21:55:02.278Z,98.80
2023-07-21T21:57:29.299Z,99.05
2023-07-21T21:59:55.954Z,99.53
2023-07-21T22:02:22.762Z,99.21
2023-07-21T22:04:50.278Z,99.74
2023-07-21T22:07:16.892Z,100.00
2023-07-21T22:09:43.698Z,100.00
2023-07-21T22:12:12.642Z,100.00
2023-07-21T22:14:54.475Z,100.00
2023-07-21T22:17:23.652Z,100.00
2023-07-21T22:19:59.918Z,100.00
2023-07-21T22:22:37.282Z,100.00
2023-07-21T22:25:04.359Z,100.00
2023-07-21T22:27:31.142Z,100.00
2023-07-21T22:29:57.902Z,100.00
2023-07-21T22:32:24.993Z,100.00
2023-07-21T22:34:51.872Z,100.00
2023-07-21T22:37:18.679Z,100.00
2023-07-21T22:39:45.249Z,100.00
2023-07-21T22:42:11.907Z,100.00
2023-07-21T22:44:38.599Z,100.00
2023-07-21T22:47:05.458Z,100.00
2023-07-21T22:49:32.135Z,100.00
2023-07-21T22:51:58.956Z,100.00
2023-07-21T22:54:25.768Z,100.00
2023-07-21T22:56:52.426Z,100.00
2023-07-21T22:59:19.214Z,100.00
2023-07-21T23:01:45.957Z,100.00
2023-07-21T23:04:12.739Z,100.00
2023-07-21T23:06:40.942Z,100.00
2023-07-21T23:09:08.911Z,100.00
2023-07-21T23:11:35.784Z,100.00
2023-07-21T23:14:02.413Z,100.00
2023-07-21T23:16:29.613Z,100.00
2023-07-21T23:18:56.733Z,100.00
2023-07-21T23:21:23.570Z,100.00
2023-07-21T23:23:50.266Z,100.00
2023-07-21T23:26:16.923Z,100.00
2023-07-21T23:28:43.674Z,100.00
2023-07-21T23:31:10.450Z,100.00
2023-07-21T23:33:37.211Z,100.00
2023-07-21T23:36:04.763Z,100.00
2023-07-21T23:38:32.530Z,100.00
2023-07-21T23:40:59.374Z,100.00
2023-07-21T23:43:26.684Z,100.00
2023-07-21T23:45:59.152Z,100.00
2023-07-21T23:48:26.695Z,100.00
2023-07-21T23:50:53.344Z,100.00
2023-07-21T23:53:20.111Z,100.00
2023-07-21T23:55:46.722Z,100.00
2023-07-21T23:58:13.379Z,100.00
